createdAt,value
2019-01-19T00:00:24.314Z,86.39
2019-01-19T00:04:05.837Z,86.04
2019-01-19T00:07:11.990Z,85.86
2019-01-19T00:10:45.477Z,86.28
2019-01-19T00:14:16.169Z,86.34
2019-01-19T00:18:06.481Z,85.93
2019-01-19T00:21:39.094Z,85.88
2019-01-19T00:25:01.478Z,85.64
2019-01-19T00:28:06.647Z,86.29
2019-01-19T00:31:18.891Z,86.73
2019-01-19T00:34:48.577Z,86.62
2019-01-19T00:38:15.761Z,87.55
2019-01-19T00:42:09.761Z,87.63
2019-01-19T00:45:29.779Z,87.28
2019-01-19T00:49:03.434Z,86.86
2019-01-19T00:52:31.472Z,86.47
2019-01-19T00:55:58.992Z,86.16
2019-01-19T00:59:02.598Z,85.17
2019-01-19T01:02:28.201Z,84.26
2019-01-19T01:05:51.860Z,83.84
2019-01-19T01:09:22.912Z,83.63
2019-01-19T01:12:40.776Z,83.74
2019-01-19T01:16:07.135Z,83.68
2019-01-19T01:19:25.352Z,84.17
2019-01-19T01:23:02.400Z,83.71
2019-01-19T01:26:22.566Z,84.43
2019-01-19T01:30:08.261Z,83.91
2019-01-19T01:33:33.967Z,83.20
2019-01-19T01:36:50.829Z,83.80
2019-01-19T01:40:11.800Z,84.10
2019-01-19T01:43:25.860Z,84.55
2019-01-19T01:46:56.979Z,84.58
2019-01-19T01:50:05.876Z,84.36
2019-01-19T01:53:35.673Z,84.29
2019-01-19T01:56:27.732Z,84.05
2019-01-19T01:59:48.865Z,83.25
2019-01-19T02:03:05.419Z,82.83
2019-01-19T02:06:38.343Z,82.96
2019-01-19T02:09:39.175Z,83.17
2019-01-19T02:13:06.543Z,83.10
2019-01-19T02:16:36.991Z,82.57
2019-01-19T02:19:57.215Z,82.89
2019-01-19T02:23:19.515Z,83.42
2019-01-19T02:27:01.430Z,83.23
2019-01-19T02:30:17.592Z,82.45
2019-01-19T02:33:38.405Z,82.98
2019-01-19T02:37:27.201Z,83.63
2019-01-19T02:40:34.046Z,83.05
2019-01-19T02:44:12.660Z,82.55
2019-01-19T02:47:14.509Z,82.81
2019-01-19T02:50:32.986Z,83.38
2019-01-19T02:54:00.423Z,84.35
2019-01-19T02:57:26.443Z,84.47
2019-01-19T03:00:27.385Z,84.29
2019-01-19T03:03:33.461Z,84.94
2019-01-19T03:06:58.459Z,85.36
2019-01-19T03:10:17.835Z,85.17
2019-01-19T03:13:25.127Z,85.04
2019-01-19T03:17:04.555Z,85.41
2019-01-19T03:20:39.397Z,85.12
2019-01-19T03:24:06.981Z,85.50
2019-01-19T03:27:26.248Z,85.34
2019-01-19T03:31:05.669Z,85.40
2019-01-19T03:34:33.142Z,85.45
2019-01-19T03:37:51.291Z,84.85
2019-01-19T03:41:29.367Z,84.96
2019-01-19T03:44:42.833Z,85.03
2019-01-19T03:47:59.658Z,84.56
2019-01-19T03:51:35.647Z,84.54
2019-01-19T03:54:39.902Z,84.31
2019-01-19T03:58:12.634Z,84.37
2019-01-19T04:01:16.604Z,84.99
2019-01-19T04:04:24.300Z,86.56
2019-01-19T04:07:30.292Z,86.79
2019-01-19T04:10:35.625Z,86.54
2019-01-19T04:13:47.010Z,86.71
2019-01-19T04:17:12.438Z,86.09
2019-01-19T04:20:33.668Z,85.55
2019-01-19T04:23:22.781Z,84.96
2019-01-19T04:26:23.465Z,84.21
2019-01-19T04:29:12.714Z,85.42
2019-01-19T04:32:01.675Z,85.70
2019-01-19T04:34:50.737Z,86.41
2019-01-19T04:37:40.427Z,87.10
2019-01-19T04:40:29.951Z,87.70
2019-01-19T04:43:19.256Z,87.29
2019-01-19T04:46:08.083Z,86.36
2019-01-19T04:48:56.816Z,85.26
2019-01-19T04:51:47.922Z,84.37
2019-01-19T04:54:36.964Z,85.07
2019-01-19T04:57:25.278Z,86.58
2019-01-19T05:00:17.942Z,86.86
2019-01-19T05:03:06.858Z,86.29
2019-01-19T05:05:55.731Z,85.34
2019-01-19T05:08:44.243Z,84.13
2019-01-19T05:11:33.061Z,83.63
2019-01-19T05:14:21.803Z,83.53
2019-01-19T05:17:10.514Z,83.77
2019-01-19T05:20:00.013Z,83.42
2019-01-19T05:22:48.777Z,82.94
2019-01-19T05:25:37.447Z,82.78
2019-01-19T05:28:31.755Z,83.42
2019-01-19T05:31:20.475Z,83.74
2019-01-19T05:34:09.851Z,83.13
2019-01-19T05:36:58.864Z,82.94
2019-01-19T05:39:48.207Z,82.88
2019-01-19T05:42:37.390Z,83.34
2019-01-19T05:45:25.624Z,83.60
2019-01-19T05:48:14.686Z,85.30
2019-01-19T05:51:03.776Z,86.98
2019-01-19T05:53:53.250Z,88.17
2019-01-19T05:56:42.131Z,89.80
2019-01-19T05:59:30.363Z,90.57
2019-01-19T06:02:20.573Z,90.90
2019-01-19T06:05:09.786Z,91.10
2019-01-19T06:07:58.280Z,91.18
2019-01-19T06:10:46.971Z,91.14
2019-01-19T06:13:35.548Z,90.75
2019-01-19T06:16:25.553Z,91.20
2019-01-19T06:19:15.662Z,91.44
2019-01-19T06:22:05.043Z,91.53
2019-01-19T06:24:53.892Z,91.41
2019-01-19T06:27:42.064Z,90.79
2019-01-19T06:30:31.387Z,90.18
2019-01-19T06:33:20.525Z,89.64
2019-01-19T06:36:09.630Z,89.17
2019-01-19T06:38:59.458Z,88.73
2019-01-19T06:41:51.845Z,88.53
2019-01-19T06:44:40.790Z,88.08
2019-01-19T06:47:29.561Z,87.93
2019-01-19T06:50:20.316Z,87.61
2019-01-19T06:53:09.139Z,87.31
2019-01-19T06:55:57.484Z,88.47
2019-01-19T06:58:46.745Z,88.92
2019-01-19T07:01:36.100Z,88.99
2019-01-19T07:04:25.305Z,88.63
2019-01-19T07:07:14.333Z,88.45
2019-01-19T07:10:03.324Z,88.61
2019-01-19T07:12:52.217Z,88.30
2019-01-19T07:15:40.847Z,87.70
2019-01-19T07:18:29.481Z,87.59
2019-01-19T07:21:17.834Z,87.21
2019-01-19T07:24:06.462Z,86.85
2019-01-19T07:26:54.929Z,87.42
2019-01-19T07:29:44.746Z,87.76
2019-01-19T07:32:33.714Z,87.28
2019-01-19T07:35:24.844Z,87.23
2019-01-19T07:38:14.447Z,86.70
2019-01-19T07:41:02.957Z,86.50
2019-01-19T07:43:52.750Z,87.08
2019-01-19T07:46:42.055Z,87.38
2019-01-19T07:49:31.376Z,87.16
2019-01-19T07:52:20.027Z,86.81
2019-01-19T07:55:10.810Z,86.78
2019-01-19T07:57:59.458Z,86.62
2019-01-19T08:00:48.930Z,86.10
2019-01-19T08:03:42.239Z,86.47
2019-01-19T08:06:31.606Z,86.04
2019-01-19T08:09:20.295Z,85.35
2019-01-19T08:12:09.573Z,84.82
2019-01-19T08:14:58.228Z,84.24
2019-01-19T08:17:47.146Z,83.64
2019-01-19T08:20:35.843Z,83.46
2019-01-19T08:23:24.371Z,83.74
2019-01-19T08:26:13.496Z,83.57
2019-01-19T08:29:02.813Z,83.42
2019-01-19T08:31:51.330Z,84.00
2019-01-19T08:34:41.143Z,84.83
2019-01-19T08:37:30.014Z,84.06
2019-01-19T08:40:21.271Z,83.96
2019-01-19T08:43:30.150Z,83.17
2019-01-19T08:46:18.198Z,83.61
2019-01-19T08:49:08.218Z,83.17
2019-01-19T08:51:57.037Z,82.79
2019-01-19T08:54:45.735Z,82.03
2019-01-19T08:57:34.394Z,81.75
2019-01-19T09:00:23.187Z,81.91
2019-01-19T09:03:11.907Z,82.36
2019-01-19T09:06:20.452Z,81.59
2019-01-19T09:09:09.876Z,81.75
2019-01-19T09:12:02.417Z,81.51
2019-01-19T09:14:51.646Z,80.97
2019-01-19T09:18:00.565Z,79.33
2019-01-19T09:20:54.693Z,78.47
2019-01-19T09:23:49.853Z,78.25
2019-01-19T09:26:41.407Z,78.00
2019-01-19T09:29:29.925Z,78.20
2019-01-19T09:32:18.796Z,78.33
2019-01-19T09:35:07.991Z,77.14
2019-01-19T09:37:56.895Z,77.52
2019-01-19T09:40:45.524Z,77.70
2019-01-19T09:43:34.455Z,76.77
2019-01-19T09:46:22.602Z,77.28
2019-01-19T09:49:12.154Z,77.47
2019-01-19T09:52:00.767Z,76.17
2019-01-19T09:54:50.752Z,74.40
2019-01-19T09:57:40.044Z,74.40
2019-01-19T10:00:35.523Z,74.18
2019-01-19T10:03:18.153Z,74.83
2019-01-19T10:06:07.523Z,75.13
2019-01-19T10:08:56.687Z,75.13
2019-01-19T10:11:46.409Z,75.16
2019-01-19T10:14:35.591Z,75.16
2019-01-19T10:17:25.765Z,76.68
2019-01-19T10:20:18.219Z,75.53
2019-01-19T10:23:08.292Z,75.89
2019-01-19T10:26:01.873Z,76.28
2019-01-19T10:28:50.929Z,75.33
2019-01-19T10:31:40.138Z,74.74
2019-01-19T10:34:29.223Z,74.74
2019-01-19T10:37:17.849Z,74.85
2019-01-19T10:40:08.116Z,74.74
2019-01-19T10:42:57.254Z,74.74
2019-01-19T10:45:45.994Z,74.72
2019-01-19T10:48:34.689Z,74.47
2019-01-19T10:51:23.489Z,73.47
2019-01-19T10:54:13.583Z,73.63
2019-01-19T10:57:02.961Z,73.63
2019-01-19T10:59:52.081Z,73.30
2019-01-19T11:02:40.658Z,72.41
2019-01-19T11:05:30.331Z,71.95
2019-01-19T11:08:18.961Z,71.94
2019-01-19T11:11:07.680Z,70.42
2019-01-19T11:13:56.703Z,69.98
2019-01-19T11:16:45.828Z,69.47
2019-01-19T11:19:34.751Z,70.48
2019-01-19T11:22:24.331Z,70.30
2019-01-19T11:25:14.578Z,70.30
2019-01-19T11:28:03.500Z,69.53
2019-01-19T11:30:52.625Z,69.27
2019-01-19T11:33:41.721Z,69.27
2019-01-19T11:36:34.050Z,69.37
2019-01-19T11:39:23.883Z,69.47
2019-01-19T11:42:12.997Z,68.35
2019-01-19T11:45:02.097Z,69.31
2019-01-19T11:47:52.421Z,69.19
2019-01-19T11:50:41.770Z,68.99
2019-01-19T11:53:31.220Z,68.99
2019-01-19T11:56:39.130Z,70.01
2019-01-19T11:59:30.379Z,69.98
2019-01-19T12:02:19.634Z,69.71
2019-01-19T12:05:10.912Z,69.71
2019-01-19T12:08:01.376Z,68.75
2019-01-19T12:11:12.758Z,67.05
2019-01-19T12:14:01.504Z,67.05
2019-01-19T12:17:09.580Z,68.07
2019-01-19T12:19:59.221Z,68.14
2019-01-19T12:22:48.979Z,67.37
2019-01-19T12:25:38.216Z,69.21
2019-01-19T12:28:30.036Z,68.52
2019-01-19T12:31:19.974Z,67.62
2019-01-19T12:34:08.427Z,67.73
2019-01-19T12:36:57.475Z,67.73
2019-01-19T12:39:46.428Z,68.26
2019-01-19T12:42:34.980Z,68.26
2019-01-19T12:45:29.269Z,67.13
2019-01-19T12:48:18.433Z,65.87
2019-01-19T12:51:09.901Z,65.87
2019-01-19T12:53:58.832Z,65.71
2019-01-19T12:56:47.665Z,65.18
2019-01-19T12:59:37.229Z,65.41
2019-01-19T13:02:26.310Z,63.50
2019-01-19T13:05:21.006Z,63.50
2019-01-19T13:08:12.115Z,64.03
2019-01-19T13:11:24.901Z,64.03
2019-01-19T13:14:13.441Z,63.13
2019-01-19T13:17:55.044Z,62.83
2019-01-19T13:21:30.244Z,63.36
2019-01-19T13:24:30.527Z,63.11
2019-01-19T13:27:43.407Z,62.37
2019-01-19T13:30:54.557Z,62.58
2019-01-19T13:34:38.181Z,62.58
2019-01-19T13:38:10.791Z,60.80
2019-01-19T13:41:36.457Z,60.80
2019-01-19T13:44:59.805Z,60.52
2019-01-19T13:48:07.631Z,62.33
2019-01-19T13:51:19.530Z,61.97
2019-01-19T13:54:20.939Z,61.20
2019-01-19T13:57:36.568Z,61.20
2019-01-19T14:00:51.342Z,60.59
2019-01-19T14:04:08.931Z,60.87
2019-01-19T14:07:46.433Z,60.95
2019-01-19T14:11:21.903Z,60.95
2019-01-19T14:14:31.814Z,61.49
2019-01-19T14:17:51.157Z,63.05
2019-01-19T14:21:13.160Z,64.27
2019-01-19T14:24:34.329Z,64.27
2019-01-19T14:28:00.676Z,63.90
2019-01-19T14:31:48.723Z,64.65
2019-01-19T14:35:05.066Z,64.06
2019-01-19T14:38:20.159Z,63.78
2019-01-19T14:42:02.307Z,63.78
2019-01-19T14:45:31.712Z,65.39
2019-01-19T14:48:56.720Z,65.61
2019-01-19T14:52:35.815Z,66.19
2019-01-19T14:56:19.851Z,66.19
2019-01-19T14:59:38.792Z,68.46
2019-01-19T15:03:04.591Z,68.46
2019-01-19T15:06:25.871Z,68.18
2019-01-19T15:09:45.729Z,67.79
2019-01-19T15:13:15.813Z,67.79
2019-01-19T15:16:42.067Z,68.65
2019-01-19T15:20:06.490Z,68.65
2019-01-19T15:23:35.723Z,68.17
2019-01-19T15:27:13.482Z,68.17
2019-01-19T15:30:31.563Z,68.86
2019-01-19T15:33:46.234Z,69.61
2019-01-19T15:37:09.171Z,70.03
2019-01-19T15:40:34.635Z,70.15
2019-01-19T15:43:51.482Z,70.15
2019-01-19T15:47:05.622Z,70.80
2019-01-19T15:50:38.089Z,70.80
2019-01-19T15:54:16.578Z,71.12
2019-01-19T15:57:36.074Z,72.31
2019-01-19T16:01:16.056Z,72.31
2019-01-19T16:04:32.980Z,72.86
2019-01-19T16:08:00.185Z,73.21
2019-01-19T16:11:28.923Z,73.73
2019-01-19T16:14:47.728Z,74.23
2019-01-19T16:18:07.680Z,74.23
2019-01-19T16:21:24.908Z,75.68
2019-01-19T16:24:30.028Z,75.66
2019-01-19T16:27:47.745Z,75.41
2019-01-19T16:31:16.023Z,75.41
2019-01-19T16:34:41.696Z,75.27
2019-01-19T16:37:59.862Z,74.52
2019-01-19T16:41:18.992Z,75.24
2019-01-19T16:44:38.456Z,74.86
2019-01-19T16:47:57.061Z,74.30
2019-01-19T16:51:37.376Z,74.30
2019-01-19T16:55:01.072Z,73.76
2019-01-19T16:58:48.266Z,73.69
2019-01-19T17:02:16.495Z,74.01
2019-01-19T17:05:18.744Z,73.27
2019-01-19T17:08:32.302Z,73.73
2019-01-19T17:11:46.064Z,74.06
2019-01-19T17:15:07.425Z,74.00
2019-01-19T17:18:21.575Z,74.56
2019-01-19T17:21:55.213Z,74.30
2019-01-19T17:25:20.711Z,74.02
2019-01-19T17:28:35.194Z,74.24
2019-01-19T17:32:23.357Z,74.11
2019-01-19T17:36:01.648Z,74.34
2019-01-19T17:39:28.345Z,73.73
2019-01-19T17:42:43.056Z,74.30
2019-01-19T17:46:06.324Z,73.95
2019-01-19T17:49:15.742Z,73.85
2019-01-19T17:52:52.141Z,74.11
2019-01-19T17:56:13.920Z,74.11
2019-01-19T17:59:41.838Z,74.08
2019-01-19T18:03:39.440Z,74.54
2019-01-19T18:07:15.265Z,74.52
2019-01-19T18:10:38.134Z,74.69
2019-01-19T18:14:01.834Z,74.76
2019-01-19T18:17:27.169Z,74.74
2019-01-19T18:20:54.888Z,75.18
2019-01-19T18:24:25.966Z,75.50
2019-01-19T18:27:39.078Z,75.47
2019-01-19T18:31:10.800Z,75.75
2019-01-19T18:34:21.192Z,76.06
2019-01-19T18:37:30.744Z,75.96
2019-01-19T18:41:06.954Z,76.14
2019-01-19T18:44:36.553Z,75.90
2019-01-19T18:47:44.125Z,75.90
2019-01-19T18:51:06.617Z,76.64
2019-01-19T18:54:32.000Z,76.51
2019-01-19T18:57:56.254Z,76.28
2019-01-19T19:01:13.000Z,76.11
2019-01-19T19:05:03.204Z,76.28
2019-01-19T19:08:19.623Z,76.36
2019-01-19T19:11:39.265Z,76.20
2019-01-19T19:15:19.070Z,76.96
2019-01-19T19:18:33.274Z,76.49
2019-01-19T19:21:55.581Z,76.45
2019-01-19T19:25:31.534Z,76.27
2019-01-19T19:28:46.698Z,76.39
2019-01-19T19:32:43.828Z,76.23
2019-01-19T19:36:13.229Z,76.17
2019-01-19T19:39:30.885Z,76.19
2019-01-19T19:43:18.455Z,76.25
2019-01-19T19:46:48.549Z,76.63
2019-01-19T19:50:06.860Z,76.48
2019-01-19T19:52:55.991Z,78.42
2019-01-19T19:55:43.888Z,78.04
2019-01-19T19:58:32.586Z,78.02
2019-01-19T20:01:21.105Z,77.91
2019-01-19T20:04:09.720Z,77.65
2019-01-19T20:06:59.355Z,77.46
2019-01-19T20:09:48.188Z,78.02
2019-01-19T20:12:37.031Z,78.16
2019-01-19T20:15:30.265Z,77.78
2019-01-19T20:18:19.385Z,77.68
2019-01-19T20:21:08.314Z,77.59
2019-01-19T20:23:56.969Z,78.17
2019-01-19T20:26:45.864Z,78.14
2019-01-19T20:29:35.464Z,78.06
2019-01-19T20:32:24.781Z,77.94
2019-01-19T20:35:13.569Z,78.87
2019-01-19T20:38:01.889Z,78.48
2019-01-19T20:40:50.800Z,78.25
2019-01-19T20:43:39.802Z,78.78
2019-01-19T20:46:35.890Z,78.12
2019-01-19T20:49:24.782Z,77.93
2019-01-19T20:52:13.793Z,78.87
2019-01-19T20:55:02.873Z,78.60
2019-01-19T20:57:52.862Z,77.97
2019-01-19T21:00:42.954Z,77.33
2019-01-19T21:03:31.812Z,77.92
2019-01-19T21:06:20.696Z,78.31
2019-01-19T21:09:11.633Z,78.06
2019-01-19T21:12:00.997Z,78.44
2019-01-19T21:14:49.636Z,78.57
2019-01-19T21:17:38.113Z,78.94
2019-01-19T21:20:26.972Z,79.03
2019-01-19T21:23:15.583Z,80.24
2019-01-19T21:26:04.645Z,79.67
2019-01-19T21:28:53.952Z,79.19
2019-01-19T21:31:43.977Z,79.77
2019-01-19T21:34:32.469Z,79.85
2019-01-19T21:37:20.972Z,80.15
2019-01-19T21:40:11.515Z,80.59
2019-01-19T21:43:00.558Z,80.50
2019-01-19T21:45:48.972Z,80.64
2019-01-19T21:48:38.412Z,80.28
2019-01-19T21:51:26.475Z,80.20
2019-01-19T21:54:14.989Z,80.12
2019-01-19T21:57:03.146Z,80.01
2019-01-19T21:59:52.194Z,80.63
2019-01-19T22:02:41.185Z,80.80
2019-01-19T22:05:31.557Z,80.23
2019-01-19T22:08:20.564Z,80.90
2019-01-19T22:11:09.102Z,81.15
2019-01-19T22:13:57.297Z,80.16
2019-01-19T22:16:46.999Z,79.87
2019-01-19T22:19:35.676Z,79.85
2019-01-19T22:22:25.561Z,79.29
2019-01-19T22:25:14.637Z,78.85
2019-01-19T22:28:02.794Z,79.08
2019-01-19T22:30:50.991Z,79.76
2019-01-19T22:33:39.203Z,80.30
2019-01-19T22:36:27.804Z,80.32
2019-01-19T22:39:17.154Z,80.22
2019-01-19T22:42:06.096Z,79.22
2019-01-19T22:44:54.324Z,79.83
2019-01-19T22:47:42.692Z,80.23
2019-01-19T22:50:30.819Z,79.93
2019-01-19T22:53:19.275Z,80.73
2019-01-19T22:56:08.685Z,79.86
2019-01-19T22:58:57.344Z,79.43
2019-01-19T23:02:09.833Z,79.38
2019-01-19T23:04:58.307Z,78.86
2019-01-19T23:07:46.340Z,78.93
2019-01-19T23:10:34.494Z,79.30
2019-01-19T23:13:22.577Z,79.50
2019-01-19T23:16:11.870Z,79.15
2019-01-19T23:19:00.454Z,78.98
2019-01-19T23:21:49.663Z,78.55
2019-01-19T23:24:38.456Z,78.94
2019-01-19T23:27:28.666Z,79.81
2019-01-19T23:30:16.947Z,80.16
2019-01-19T23:33:05.534Z,80.16
2019-01-19T23:35:54.544Z,80.33
2019-01-19T23:38:44.148Z,80.34
2019-01-19T23:41:32.778Z,80.77
2019-01-19T23:44:21.384Z,81.30
2019-01-19T23:47:09.642Z,82.00
2019-01-19T23:49:57.924Z,81.88
2019-01-19T23:52:47.109Z,81.36
2019-01-19T23:55:35.939Z,81.37
2019-01-19T23:58:24.022Z,82.20
